EGCN/DSA METAR and TAF weather

Enter ICAO airport designator
Station Type Date Time Source
EGCN METAR 2022/06/30 02:20 UTC NOAA

EGCN 300220Z 16005KT 9999 FEW029 14/11 Q1010


Station Type Date Time Source
EGCN Decoded METAR 2022/06/30 02:20 UTC NOAA

Station name not available
Jun 29, 2022 - 10:20 PM EDT / 2022.06.30 0220 UTC
Wind: from the SSE (160 degrees) at 6 MPH (5 KT):0
Visibility: greater than 7 mile(s):0
Sky conditions: mostly clear
Temperature: 57 F (14 C)
Dew Point: 51 F (11 C)
Relative Humidity: 82%
Pressure (altimeter): 29.83 in. Hg (1010 hPa)
ob: EGCN 300220Z 16005KT 9999 FEW029 14/11 Q1010
cycle: 2

Station Type Date Time Source
EGCN TAF 2022/06/29 18:00 UTC NOAA

TAF EGCN 291657Z 2918/3018 19008KT 9999 SCT045 PROB40
TEMPO 3002/3006 6000 SHRA PROB30
TEMPO 3010/3018 5000 SHRA

Example: see airport list